• Join FlightAware (Why Join?)
  • Login
  • US Flag 
06:52AM EST


 

Airport Tracker/Info


-or-


 

Live Flight TrackerFlight Track Log ✈ SWA920 ✈ 30-Apr-2013 ✈ KBNA - KCHS

Flight Track Log - Related Links

Times and Time Zones

All times are in EDT time to prevent confusion due to time zone crossing. See the SWA920 flight status page for this flight to view local times or setup timezone preferences in your user account.

Time Position Orientation Groundspeed Altitude Reporting Facility
EDT Latitude Longitude Course Direction KTS MPH feet Rate Location/Type
05:47PM 36.0833 -86.6833 180° South 170 196 2,100  Level Nashville TRACON
05:48PM 36.0667 -86.6167 107° East 238 274 4,800 3,180 Climbing Nashville TRACON
05:50PM 36.0661 -86.4617 90° East 303 349 11,100 3,240 Climbing Memphis Center
05:51PM 36.0686 -86.3461 88° East 319 367 14,000 3,120 Climbing Memphis Center
05:52PM 36.0686 -86.2150 90° East 337 388 17,400 3,120 Climbing Memphis Center
05:53PM 36.0703 -86.0867 89° East 357 411 20,300 2,460 Climbing Memphis Center
05:56PM 36.0481 -85.7800 95° East 388 447 25,800 2,220 Climbing Atlanta Center
05:57PM 36.0375 -85.6333 95° East 410 472 27,900 1,860 Climbing Atlanta Center
05:58PM 36.0269 -85.4817 95° East 427 491 29,600 1,440 Climbing Atlanta Center
05:59PM 36.0161 -85.3247 95° East 442 509 30,800 840 Climbing Atlanta Center
06:00PM 36.0053 -85.1681 95° East 453 521 31,300 900 Climbing Atlanta Center
06:01PM 35.9689 -85.0214 107° East 438 504 32,700 960 Climbing Atlanta Center
06:02PM 35.8633 -84.9022 138° Southeast 430 495 33,300 120 Climbing Atlanta Center
06:03PM 35.7639 -84.7964 139° Southeast 447 514 33,000 -180 Descending Atlanta Center
06:04PM 35.6686 -84.6931 139° Southeast 459 528 33,000  Level Atlanta Center
06:05PM 35.5711 -84.5903 139° Southeast 465 535 33,000  Level Atlanta Center
06:06PM 35.4756 -84.4850 138° Southeast 465 535 33,000 480 Level Atlanta Center
06:07PM 35.3778 -84.3800 139° Southeast 465 535 34,000 960 Climbing Atlanta Center
06:08PM 35.2736 -84.2703 139° Southeast 470 541 35,000 480 Climbing Atlanta Center
06:09PM 35.1717 -84.1608 139° Southeast 477 549 35,000  Level Atlanta Center
06:10PM 35.0653 -84.0489 139° Southeast 483 556 35,000 600 Level Atlanta Center
06:11PM 34.9608 -83.9375 139° Southeast 493 567 36,200 960 Climbing Atlanta Center
06:12PM 34.8667 -83.8058 131° Southeast 499 574 37,000 360 Climbing Atlanta Center
06:13PM 34.7767 -83.6722 129° Southeast 515 593 37,000 -480 Level Atlanta Center
06:14PM 34.6908 -83.5511 131° Southeast 521 600 36,100 -1,440 Descending Atlanta Center
06:15PM 34.5878 -83.4031 130° Southeast 521 600 34,200 -2,100 Descending Atlanta Center
06:16PM 34.4953 -83.2725 131° Southeast 515 593 31,900 -1,620 Descending Atlanta Center
06:17PM 34.4108 -83.1500 130° Southeast 494 568 31,000 -600 Descending Atlanta Center
06:18PM 34.3244 -83.0275 130° Southeast 473 544 30,700 -780 Descending Atlanta Center
06:19PM 34.2400 -82.9106 131° Southeast 473 544 29,500 -900 Descending Atlanta Center
06:20PM 34.1678 -82.8061 130° Southeast 468 539 29,000 -300 Descending Atlanta Center
06:21PM 34.0853 -82.6919 131° Southeast 456 525 29,000  Level Atlanta Center
06:22PM 34.0089 -82.5828 130° Southeast 443 510 29,000  Level Atlanta Center
06:23PM 33.9303 -82.4689 130° Southeast 438 504 29,000  Level Atlanta Center
06:24PM 33.8494 -82.3606 132° Southeast 443 510 29,000 -540 Level Atlanta Center
06:27PM 33.6517 -81.9919 123° Southeast 405 466 27,000 -540 Descending Jacksonville Center
06:28PM 33.6111 -81.8600 110° East 416 479 27,000  Level Jacksonville Center
06:29PM 33.5744 -81.7383 110° East 429 494 27,000 -300 Level Jacksonville Center
06:30PM 33.5314 -81.6019 111° Southeast 429 494 26,500 -780 Descending Jacksonville Center
06:31PM 33.4903 -81.4706 111° Southeast 429 494 25,500 -1,260 Descending Jacksonville Center
06:32PM 33.4428 -81.3294 112° Southeast 424 488 24,000 -780 Descending Jacksonville Center
06:33PM 33.4036 -81.2031 110° East 407 468 24,000 -600 Level Jacksonville Center
06:34PM 33.3622 -81.0772 111° Southeast 407 468 22,800 -1,980 Descending Jacksonville Center
06:35PM 33.3206 -80.9486 111° Southeast 407 468 20,100 -2,580 Descending Jacksonville Center
06:36PM 33.2811 -80.8253 111° Southeast 407 468 17,700 -2,580 Descending Jacksonville Center
06:37PM 33.2414 -80.7047 111° Southeast 401 461 15,000 -2,760 Descending Jacksonville Center
06:38PM 33.2039 -80.5864 111° Southeast 390 449 12,200 -2,280 Descending Jacksonville Center
06:39PM 33.1664 -80.4731 112° Southeast 385 443 10,500 -1,440 Descending Jacksonville Center
06:41PM 33.0350 -80.3775 149° Southeast 292 336 8,000 -1,440 Descending Jacksonville Center
06:42PM 32.9631 -80.3350 154° Southeast 292 336 6,200 -1,680 Descending Jacksonville Center
06:43PM 32.8953 -80.2875 150° Southeast 286 329 4,700 -1,260 Descending Jacksonville Center
06:44PM 32.8544 -80.2244 128° Southeast 248 285 3,700 -1,020 Descending Jacksonville Center
06:45PM 32.8261 -80.1708 122° Southeast 230 265 2,700 -1,020 Descending Jacksonville Center
06:47PM 32.8833 -80.0333 79° East  Level FlightAware Approximate
06:54PM 32.8986 -80.0405 79° East  Level Estimated
06:55PM 32.8986 -80.0405 79° East  Level Estimated
06:56PM 32.8986 -80.0405 79° East  Level Estimated
06:57PM 32.8986 -80.0405 79° East  Level Estimated